sensor_id;sensor_type;location;lat;lon;timestamp;P1;durP1;ratioP1;P2;durP2;ratioP2
76119;SDS011;64852;48.092;-1.640;2023-08-06T00:08:43;1.40;;;1.40;;
76119;SDS011;64852;48.092;-1.640;2023-08-06T00:13:34;1.77;;;1.67;;
76119;SDS011;64852;48.092;-1.640;2023-08-06T00:21:03;1.90;;;1.80;;
76119;SDS011;64852;48.092;-1.640;2023-08-06T00:23:29;4.25;;;3.35;;
76119;SDS011;64852;48.092;-1.640;2023-08-06T00:25:54;5.38;;;3.00;;
76119;SDS011;64852;48.092;-1.640;2023-08-06T00:28:20;3.10;;;2.70;;
76119;SDS011;64852;48.092;-1.640;2023-08-06T00:30:45;2.90;;;2.70;;
76119;SDS011;64852;48.092;-1.640;2023-08-06T00:33:11;2.00;;;1.90;;
76119;SDS011;64852;48.092;-1.640;2023-08-06T00:35:36;2.40;;;2.30;;
76119;SDS011;64852;48.092;-1.640;2023-08-06T00:38:02;5.07;;;2.63;;
76119;SDS011;64852;48.092;-1.640;2023-08-06T00:40:28;3.30;;;3.00;;
76119;SDS011;64852;48.092;-1.640;2023-08-06T00:42:55;2.30;;;2.20;;
76119;SDS011;64852;48.092;-1.640;2023-08-06T00:45:21;3.10;;;2.90;;
76119;SDS011;64852;48.092;-1.640;2023-08-06T00:47:47;2.80;;;2.60;;
76119;SDS011;64852;48.092;-1.640;2023-08-06T00:50:13;2.90;;;2.70;;
76119;SDS011;64852;48.092;-1.640;2023-08-06T00:52:39;2.40;;;2.28;;
76119;SDS011;64852;48.092;-1.640;2023-08-06T00:55:05;4.00;;;3.20;;
76119;SDS011;64852;48.092;-1.640;2023-08-06T00:57:31;2.00;;;1.90;;
76119;SDS011;64852;48.092;-1.640;2023-08-06T01:12:33;8.80;;;4.10;;
76119;SDS011;64852;48.092;-1.640;2023-08-06T01:15:27;3.60;;;3.40;;
76119;SDS011;64852;48.092;-1.640;2023-08-06T01:17:58;4.25;;;3.20;;
76119;SDS011;64852;48.092;-1.640;2023-08-06T01:20:28;3.40;;;3.20;;
76119;SDS011;64852;48.092;-1.640;2023-08-06T01:22:54;2.92;;;2.83;;
76119;SDS011;64852;48.092;-1.640;2023-08-06T01:25:20;2.80;;;2.70;;
76119;SDS011;64852;48.092;-1.640;2023-08-06T01:27:47;2.70;;;2.60;;
76119;SDS011;64852;48.092;-1.640;2023-08-06T01:30:22;2.97;;;2.80;;
76119;SDS011;64852;48.092;-1.640;2023-08-06T01:32:53;3.30;;;3.00;;
76119;SDS011;64852;48.092;-1.640;2023-08-06T02:06:57;2.90;;;2.70;;
76119;SDS011;64852;48.092;-1.640;2023-08-06T02:09:22;4.27;;;3.90;;
76119;SDS011;64852;48.092;-1.640;2023-08-06T02:16:39;3.95;;;3.75;;
76119;SDS011;64852;48.092;-1.640;2023-08-06T02:19:04;7.60;;;7.20;;
76119;SDS011;64852;48.092;-1.640;2023-08-06T02:21:30;7.30;;;6.80;;
76119;SDS011;64852;48.092;-1.640;2023-08-06T02:23:56;6.28;;;5.97;;
76119;SDS011;64852;48.092;-1.640;2023-08-06T02:28:47;5.18;;;4.88;;
76119;SDS011;64852;48.092;-1.640;2023-08-06T02:38:29;5.57;;;5.28;;
76119;SDS011;64852;48.092;-1.640;2023-08-06T02:45:46;5.10;;;4.80;;
76119;SDS011;64852;48.092;-1.640;2023-08-06T02:50:38;5.70;;;5.40;;
76119;SDS011;64852;48.092;-1.640;2023-08-06T02:53:05;7.78;;;7.38;;
76119;SDS011;64852;48.092;-1.640;2023-08-06T02:55:31;7.85;;;7.40;;
76119;SDS011;64852;48.092;-1.640;2023-08-06T02:57:57;12.77;;;7.13;;
76119;SDS011;64852;48.092;-1.640;2023-08-06T03:00:23;6.93;;;6.43;;
76119;SDS011;64852;48.092;-1.640;2023-08-06T03:07:39;5.40;;;5.10;;
76119;SDS011;64852;48.092;-1.640;2023-08-06T03:10:05;5.73;;;5.43;;
76119;SDS011;64852;48.092;-1.640;2023-08-06T03:12:31;5.88;;;5.57;;
76119;SDS011;64852;48.092;-1.640;2023-08-06T03:14:56;6.50;;;6.13;;
76119;SDS011;64852;48.092;-1.640;2023-08-06T03:17:22;8.57;;;8.07;;
76119;SDS011;64852;48.092;-1.640;2023-08-06T03:22:13;6.85;;;6.45;;
76119;SDS011;64852;48.092;-1.640;2023-08-06T03:24:39;7.50;;;7.10;;
76119;SDS011;64852;48.092;-1.640;2023-08-06T03:27:04;7.70;;;7.27;;
76119;SDS011;64852;48.092;-1.640;2023-08-06T04:08:29;7.15;;;6.75;;
76119;SDS011;64852;48.092;-1.640;2023-08-06T04:10:55;12.27;;;11.48;;
76119;SDS011;64852;48.092;-1.640;2023-08-06T04:13:20;10.97;;;10.10;;
76119;SDS011;64852;48.092;-1.640;2023-08-06T04:15:46;10.65;;;9.85;;
76119;SDS011;64852;48.092;-1.640;2023-08-06T04:18:12;10.20;;;9.70;;
76119;SDS011;64852;48.092;-1.640;2023-08-06T04:20:46;9.10;;;8.60;;
76119;SDS011;64852;48.092;-1.640;2023-08-06T04:23:14;9.38;;;8.77;;
76119;SDS011;64852;48.092;-1.640;2023-08-06T04:25:40;9.95;;;9.35;;
76119;SDS011;64852;48.092;-1.640;2023-08-06T04:28:06;10.40;;;8.15;;
76119;SDS011;64852;48.092;-1.640;2023-08-06T04:30:32;8.63;;;8.13;;
76119;SDS011;64852;48.092;-1.640;2023-08-06T04:32:58;8.80;;;8.30;;
76119;SDS011;64852;48.092;-1.640;2023-08-06T04:35:24;8.10;;;7.70;;
76119;SDS011;64852;48.092;-1.640;2023-08-06T04:37:50;8.30;;;7.83;;
76119;SDS011;64852;48.092;-1.640;2023-08-06T04:40:15;8.60;;;8.10;;
76119;SDS011;64852;48.092;-1.640;2023-08-06T04:42:41;8.70;;;8.00;;
76119;SDS011;64852;48.092;-1.640;2023-08-06T04:45:07;7.60;;;7.20;;
76119;SDS011;64852;48.092;-1.640;2023-08-06T04:47:33;9.07;;;8.37;;
76119;SDS011;64852;48.092;-1.640;2023-08-06T04:49:58;8.70;;;8.10;;
76119;SDS011;64852;48.092;-1.640;2023-08-06T04:52:24;8.80;;;8.20;;
76119;SDS011;64852;48.092;-1.640;2023-08-06T04:54:53;8.90;;;8.40;;
76119;SDS011;64852;48.092;-1.640;2023-08-06T04:57:21;8.73;;;8.23;;
76119;SDS011;64852;48.092;-1.640;2023-08-06T04:59:47;9.00;;;8.50;;
76119;SDS011;64852;48.092;-1.640;2023-08-06T05:02:12;8.30;;;7.90;;
76119;SDS011;64852;48.092;-1.640;2023-08-06T05:04:38;9.33;;;8.77;;
76119;SDS011;64852;48.092;-1.640;2023-08-06T05:07:05;9.65;;;9.10;;
76119;SDS011;64852;48.092;-1.640;2023-08-06T05:09:30;9.30;;;8.80;;
76119;SDS011;64852;48.092;-1.640;2023-08-06T05:11:56;8.77;;;8.27;;
76119;SDS011;64852;48.092;-1.640;2023-08-06T05:14:22;9.35;;;8.85;;
76119;SDS011;64852;48.092;-1.640;2023-08-06T05:16:47;9.27;;;8.77;;
76119;SDS011;64852;48.092;-1.640;2023-08-06T05:19:13;8.63;;;8.20;;
76119;SDS011;64852;48.092;-1.640;2023-08-06T05:21:38;9.53;;;8.93;;
76119;SDS011;64852;48.092;-1.640;2023-08-06T05:24:04;9.10;;;8.60;;
76119;SDS011;64852;48.092;-1.640;2023-08-06T05:26:29;10.17;;;9.57;;
76119;SDS011;64852;48.092;-1.640;2023-08-06T05:28:55;11.17;;;10.50;;
76119;SDS011;64852;48.092;-1.640;2023-08-06T05:31:21;11.80;;;11.13;;
76119;SDS011;64852;48.092;-1.640;2023-08-06T09:15:05;11.15;;;10.55;;
76119;SDS011;64852;48.092;-1.640;2023-08-06T09:39:26;8.90;;;8.30;;
76119;SDS011;64852;48.092;-1.640;2023-08-06T09:42:00;9.27;;;8.77;;
76119;SDS011;64852;48.092;-1.640;2023-08-06T09:44:27;8.60;;;8.20;;
76119;SDS011;64852;48.092;-1.640;2023-08-06T09:46:55;7.70;;;7.30;;
76119;SDS011;64852;48.092;-1.640;2023-08-06T09:56:47;6.53;;;6.22;;
76119;SDS011;64852;48.092;-1.640;2023-08-06T09:59:13;6.78;;;6.38;;
76119;SDS011;64852;48.092;-1.640;2023-08-06T10:01:40;5.93;;;5.53;;
76119;SDS011;64852;48.092;-1.640;2023-08-06T10:04:06;7.20;;;6.80;;
76119;SDS011;64852;48.092;-1.640;2023-08-06T10:06:33;7.10;;;6.70;;
76119;SDS011;64852;48.092;-1.640;2023-08-06T10:09:05;7.35;;;6.95;;
76119;SDS011;64852;48.092;-1.640;2023-08-06T10:11:31;7.90;;;7.50;;
76119;SDS011;64852;48.092;-1.640;2023-08-06T10:14:06;7.83;;;7.43;;
76119;SDS011;64852;48.092;-1.640;2023-08-06T10:16:45;6.30;;;6.00;;
76119;SDS011;64852;48.092;-1.640;2023-08-06T10:19:13;6.05;;;5.75;;
76119;SDS011;64852;48.092;-1.640;2023-08-06T10:21:41;5.68;;;5.20;;
76119;SDS011;64852;48.092;-1.640;2023-08-06T10:24:27;5.15;;;4.85;;
76119;SDS011;64852;48.092;-1.640;2023-08-06T10:26:56;5.20;;;4.90;;
76119;SDS011;64852;48.092;-1.640;2023-08-06T10:32:01;5.47;;;5.18;;
76119;SDS011;64852;48.092;-1.640;2023-08-06T10:37:11;5.40;;;5.10;;
76119;SDS011;64852;48.092;-1.640;2023-08-06T10:39:47;5.70;;;5.40;;
76119;SDS011;64852;48.092;-1.640;2023-08-06T10:42:22;6.72;;;6.32;;
76119;SDS011;64852;48.092;-1.640;2023-08-06T10:45:11;5.30;;;5.00;;
76119;SDS011;64852;48.092;-1.640;2023-08-06T10:47:39;4.30;;;4.10;;
76119;SDS011;64852;48.092;-1.640;2023-08-06T10:50:06;13.27;;;3.25;;
76119;SDS011;64852;48.092;-1.640;2023-08-06T10:52:41;3.20;;;3.00;;
76119;SDS011;64852;48.092;-1.640;2023-08-06T10:55:08;3.10;;;3.00;;
76119;SDS011;64852;48.092;-1.640;2023-08-06T10:57:34;3.20;;;3.00;;
76119;SDS011;64852;48.092;-1.640;2023-08-06T11:00:00;3.00;;;2.90;;
76119;SDS011;64852;48.092;-1.640;2023-08-06T11:02:26;3.00;;;2.90;;
76119;SDS011;64852;48.092;-1.640;2023-08-06T11:04:51;3.33;;;3.13;;
76119;SDS011;64852;48.092;-1.640;2023-08-06T11:07:17;2.60;;;2.50;;
76119;SDS011;64852;48.092;-1.640;2023-08-06T11:09:42;2.90;;;2.80;;
76119;SDS011;64852;48.092;-1.640;2023-08-06T11:12:11;2.40;;;2.30;;
76119;SDS011;64852;48.092;-1.640;2023-08-06T11:14:37;2.30;;;2.20;;
76119;SDS011;64852;48.092;-1.640;2023-08-06T11:17:04;2.30;;;2.20;;
76119;SDS011;64852;48.092;-1.640;2023-08-06T11:19:30;2.40;;;2.30;;
76119;SDS011;64852;48.092;-1.640;2023-08-06T11:21:56;2.57;;;2.47;;
76119;SDS011;64852;48.092;-1.640;2023-08-06T11:24:23;2.53;;;2.42;;
76119;SDS011;64852;48.092;-1.640;2023-08-06T11:26:49;2.30;;;2.20;;
76119;SDS011;64852;48.092;-1.640;2023-08-06T11:29:15;2.70;;;2.60;;
76119;SDS011;64852;48.092;-1.640;2023-08-06T11:34:09;2.40;;;2.30;;
76119;SDS011;64852;48.092;-1.640;2023-08-06T11:41:30;2.70;;;2.60;;
76119;SDS011;64852;48.092;-1.640;2023-08-06T11:43:57;2.00;;;1.90;;
76119;SDS011;64852;48.092;-1.640;2023-08-06T11:46:23;2.28;;;2.17;;
76119;SDS011;64852;48.092;-1.640;2023-08-06T11:48:54;1.30;;;1.30;;
76119;SDS011;64852;48.092;-1.640;2023-08-06T11:51:26;1.70;;;1.65;;
76119;SDS011;64852;48.092;-1.640;2023-08-06T11:53:55;1.80;;;1.70;;
76119;SDS011;64852;48.092;-1.640;2023-08-06T11:56:22;2.15;;;2.05;;
76119;SDS011;64852;48.092;-1.640;2023-08-06T11:58:49;1.45;;;1.45;;
76119;SDS011;64852;48.092;-1.640;2023-08-06T12:01:14;1.67;;;1.57;;
76119;SDS011;64852;48.092;-1.640;2023-08-06T12:03:40;2.03;;;1.93;;
76119;SDS011;64852;48.092;-1.640;2023-08-06T12:06:06;9.77;;;1.60;;
76119;SDS011;64852;48.092;-1.640;2023-08-06T12:08:34;1.30;;;1.30;;
76119;SDS011;64852;48.092;-1.640;2023-08-06T12:11:00;1.10;;;1.10;;
76119;SDS011;64852;48.092;-1.640;2023-08-06T12:13:26;0.97;;;0.97;;
76119;SDS011;64852;48.092;-1.640;2023-08-06T12:15:51;1.10;;;1.10;;
76119;SDS011;64852;48.092;-1.640;2023-08-06T12:20:44;1.08;;;1.08;;
76119;SDS011;64852;48.092;-1.640;2023-08-06T12:23:10;1.00;;;1.00;;
76119;SDS011;64852;48.092;-1.640;2023-08-06T12:25:38;0.95;;;0.95;;
76119;SDS011;64852;48.092;-1.640;2023-08-06T12:28:04;1.43;;;1.27;;
76119;SDS011;64852;48.092;-1.640;2023-08-06T12:30:30;0.80;;;0.80;;
76119;SDS011;64852;48.092;-1.640;2023-08-06T12:32:56;1.00;;;1.00;;
76119;SDS011;64852;48.092;-1.640;2023-08-06T12:35:22;1.20;;;1.20;;
76119;SDS011;64852;48.092;-1.640;2023-08-06T12:37:48;1.27;;;1.27;;
76119;SDS011;64852;48.092;-1.640;2023-08-06T12:40:14;1.30;;;1.30;;
76119;SDS011;64852;48.092;-1.640;2023-08-06T12:42:39;1.30;;;1.30;;
76119;SDS011;64852;48.092;-1.640;2023-08-06T12:45:05;1.42;;;1.42;;
76119;SDS011;64852;48.092;-1.640;2023-08-06T12:49:57;1.00;;;1.00;;
76119;SDS011;64852;48.092;-1.640;2023-08-06T12:52:22;1.23;;;1.23;;
76119;SDS011;64852;48.092;-1.640;2023-08-06T12:54:48;1.00;;;1.00;;
76119;SDS011;64852;48.092;-1.640;2023-08-06T12:57:14;1.00;;;1.00;;
76119;SDS011;64852;48.092;-1.640;2023-08-06T12:59:39;0.80;;;0.80;;
76119;SDS011;64852;48.092;-1.640;2023-08-06T13:02:05;0.70;;;0.70;;
76119;SDS011;64852;48.092;-1.640;2023-08-06T13:04:31;1.03;;;1.03;;
76119;SDS011;64852;48.092;-1.640;2023-08-06T13:06:58;0.60;;;0.60;;
76119;SDS011;64852;48.092;-1.640;2023-08-06T13:09:23;0.60;;;0.60;;
76119;SDS011;64852;48.092;-1.640;2023-08-06T13:11:50;0.70;;;0.70;;
76119;SDS011;64852;48.092;-1.640;2023-08-06T13:14:16;0.70;;;0.70;;
76119;SDS011;64852;48.092;-1.640;2023-08-06T13:16:42;0.75;;;0.75;;
76119;SDS011;64852;48.092;-1.640;2023-08-06T13:19:09;0.80;;;0.80;;
76119;SDS011;64852;48.092;-1.640;2023-08-06T13:22:21;0.80;;;0.80;;
76119;SDS011;64852;48.092;-1.640;2023-08-06T13:24:24;0.50;;;0.50;;
76119;SDS011;64852;48.092;-1.640;2023-08-06T13:26:49;0.60;;;0.60;;
76119;SDS011;64852;48.092;-1.640;2023-08-06T13:29:15;0.60;;;0.60;;
76119;SDS011;64852;48.092;-1.640;2023-08-06T13:31:40;0.53;;;0.53;;
76119;SDS011;64852;48.092;-1.640;2023-08-06T13:34:06;0.83;;;0.83;;
76119;SDS011;64852;48.092;-1.640;2023-08-06T13:36:32;0.50;;;0.50;;
76119;SDS011;64852;48.092;-1.640;2023-08-06T13:38:57;3.70;;;0.70;;
76119;SDS011;64852;48.092;-1.640;2023-08-06T13:41:23;0.40;;;0.40;;
76119;SDS011;64852;48.092;-1.640;2023-08-06T13:43:49;0.93;;;0.93;;
76119;SDS011;64852;48.092;-1.640;2023-08-06T13:46:14;0.50;;;0.50;;
76119;SDS011;64852;48.092;-1.640;2023-08-06T13:48:45;1.38;;;0.68;;
76119;SDS011;64852;48.092;-1.640;2023-08-06T13:51:12;0.50;;;0.50;;
76119;SDS011;64852;48.092;-1.640;2023-08-06T13:53:38;0.50;;;0.50;;
76119;SDS011;64852;48.092;-1.640;2023-08-06T13:58:31;0.50;;;0.50;;
76119;SDS011;64852;48.092;-1.640;2023-08-06T14:00:57;0.50;;;0.50;;
76119;SDS011;64852;48.092;-1.640;2023-08-06T14:03:22;0.50;;;0.50;;
76119;SDS011;64852;48.092;-1.640;2023-08-06T14:05:48;0.50;;;0.50;;
76119;SDS011;64852;48.092;-1.640;2023-08-06T14:08:15;0.93;;;0.70;;
76119;SDS011;64852;48.092;-1.640;2023-08-06T14:10:43;0.70;;;0.70;;
76119;SDS011;64852;48.092;-1.640;2023-08-06T14:18:05;0.57;;;0.57;;
76119;SDS011;64852;48.092;-1.640;2023-08-06T14:20:31;0.40;;;0.40;;
76119;SDS011;64852;48.092;-1.640;2023-08-06T14:22:57;0.53;;;0.53;;
76119;SDS011;64852;48.092;-1.640;2023-08-06T14:25:22;0.43;;;0.43;;
76119;SDS011;64852;48.092;-1.640;2023-08-06T14:27:48;0.50;;;0.50;;
76119;SDS011;64852;48.092;-1.640;2023-08-06T14:30:13;0.75;;;0.75;;
76119;SDS011;64852;48.092;-1.640;2023-08-06T14:32:39;0.50;;;0.50;;
76119;SDS011;64852;48.092;-1.640;2023-08-06T14:35:05;0.53;;;0.53;;
76119;SDS011;64852;48.092;-1.640;2023-08-06T14:37:30;0.45;;;0.45;;
76119;SDS011;64852;48.092;-1.640;2023-08-06T14:39:56;0.70;;;0.70;;
76119;SDS011;64852;48.092;-1.640;2023-08-06T14:42:22;0.65;;;0.65;;
76119;SDS011;64852;48.092;-1.640;2023-08-06T14:44:47;0.50;;;0.50;;
76119;SDS011;64852;48.092;-1.640;2023-08-06T14:47:13;0.73;;;0.73;;
76119;SDS011;64852;48.092;-1.640;2023-08-06T14:49:38;3.22;;;0.77;;
76119;SDS011;64852;48.092;-1.640;2023-08-06T14:52:05;0.77;;;0.77;;
76119;SDS011;64852;48.092;-1.640;2023-08-06T14:54:31;0.50;;;0.50;;
76119;SDS011;64852;48.092;-1.640;2023-08-06T14:56:57;0.50;;;0.50;;
76119;SDS011;64852;48.092;-1.640;2023-08-06T14:59:22;0.60;;;0.60;;
76119;SDS011;64852;48.092;-1.640;2023-08-06T15:01:48;0.55;;;0.55;;
76119;SDS011;64852;48.092;-1.640;2023-08-06T15:04:14;0.95;;;0.73;;
76119;SDS011;64852;48.092;-1.640;2023-08-06T15:06:39;0.50;;;0.50;;
76119;SDS011;64852;48.092;-1.640;2023-08-06T15:09:05;0.50;;;0.50;;
76119;SDS011;64852;48.092;-1.640;2023-08-06T15:11:30;0.40;;;0.40;;
76119;SDS011;64852;48.092;-1.640;2023-08-06T15:13:56;0.63;;;0.63;;
76119;SDS011;64852;48.092;-1.640;2023-08-06T15:16:21;0.57;;;0.50;;
76119;SDS011;64852;48.092;-1.640;2023-08-06T15:18:47;1.10;;;0.85;;
76119;SDS011;64852;48.092;-1.640;2023-08-06T15:21:13;1.00;;;0.77;;
76119;SDS011;64852;48.092;-1.640;2023-08-06T15:23:39;0.40;;;0.40;;
76119;SDS011;64852;48.092;-1.640;2023-08-06T15:26:05;0.43;;;0.43;;
76119;SDS011;64852;48.092;-1.640;2023-08-06T15:28:31;0.50;;;0.50;;
76119;SDS011;64852;48.092;-1.640;2023-08-06T15:30:56;0.63;;;0.40;;
76119;SDS011;64852;48.092;-1.640;2023-08-06T15:33:22;0.80;;;0.68;;
76119;SDS011;64852;48.092;-1.640;2023-08-06T15:35:48;0.50;;;0.50;;
76119;SDS011;64852;48.092;-1.640;2023-08-06T15:38:14;0.50;;;0.50;;
76119;SDS011;64852;48.092;-1.640;2023-08-06T15:40:39;1.65;;;0.55;;
76119;SDS011;64852;48.092;-1.640;2023-08-06T15:43:05;0.50;;;0.50;;
76119;SDS011;64852;48.092;-1.640;2023-08-06T15:45:31;0.40;;;0.40;;
76119;SDS011;64852;48.092;-1.640;2023-08-06T15:47:57;0.43;;;0.43;;
76119;SDS011;64852;48.092;-1.640;2023-08-06T15:50:23;0.40;;;0.40;;
76119;SDS011;64852;48.092;-1.640;2023-08-06T15:52:48;0.93;;;0.93;;
76119;SDS011;64852;48.092;-1.640;2023-08-06T15:55:14;0.50;;;0.50;;
76119;SDS011;64852;48.092;-1.640;2023-08-06T15:57:40;0.50;;;0.50;;
76119;SDS011;64852;48.092;-1.640;2023-08-06T16:00:06;0.73;;;0.73;;
76119;SDS011;64852;48.092;-1.640;2023-08-06T16:02:32;0.65;;;0.60;;
76119;SDS011;64852;48.092;-1.640;2023-08-06T16:07:24;1.55;;;0.80;;
76119;SDS011;64852;48.092;-1.640;2023-08-06T16:09:52;0.50;;;0.50;;
76119;SDS011;64852;48.092;-1.640;2023-08-06T16:12:18;0.60;;;0.57;;
76119;SDS011;64852;48.092;-1.640;2023-08-06T16:14:48;0.52;;;0.52;;
76119;SDS011;64852;48.092;-1.640;2023-08-06T16:17:15;0.50;;;0.50;;
76119;SDS011;64852;48.092;-1.640;2023-08-06T16:19:41;1.15;;;0.88;;
76119;SDS011;64852;48.092;-1.640;2023-08-06T16:22:07;1.42;;;1.27;;
76119;SDS011;64852;48.092;-1.640;2023-08-06T16:26:59;0.68;;;0.68;;
76119;SDS011;64852;48.092;-1.640;2023-08-06T16:31:50;0.95;;;0.85;;
76119;SDS011;64852;48.092;-1.640;2023-08-06T16:34:17;4.45;;;1.02;;
76119;SDS011;64852;48.092;-1.640;2023-08-06T16:36:43;1.13;;;0.50;;
76119;SDS011;64852;48.092;-1.640;2023-08-06T16:51:17;0.70;;;0.70;;
76119;SDS011;64852;48.092;-1.640;2023-08-06T16:53:42;1.60;;;0.80;;
76119;SDS011;64852;48.092;-1.640;2023-08-06T17:20:43;0.50;;;0.50;;
76119;SDS011;64852;48.092;-1.640;2023-08-06T17:47:24;0.85;;;0.57;;
76119;SDS011;64852;48.092;-1.640;2023-08-06T17:54:41;0.60;;;0.60;;
76119;SDS011;64852;48.092;-1.640;2023-08-06T17:57:07;0.60;;;0.60;;
76119;SDS011;64852;48.092;-1.640;2023-08-06T17:59:32;0.50;;;0.50;;
76119;SDS011;64852;48.092;-1.640;2023-08-06T18:01:58;0.65;;;0.65;;
76119;SDS011;64852;48.092;-1.640;2023-08-06T18:04:24;0.70;;;0.70;;
76119;SDS011;64852;48.092;-1.640;2023-08-06T18:11:40;2.75;;;0.75;;
76119;SDS011;64852;48.092;-1.640;2023-08-06T18:18:57;0.50;;;0.50;;
76119;SDS011;64852;48.092;-1.640;2023-08-06T18:21:23;0.50;;;0.50;;
76119;SDS011;64852;48.092;-1.640;2023-08-06T18:23:48;0.60;;;0.60;;
76119;SDS011;64852;48.092;-1.640;2023-08-06T18:26:14;2.08;;;0.50;;
76119;SDS011;64852;48.092;-1.640;2023-08-06T18:33:35;0.40;;;0.40;;
76119;SDS011;64852;48.092;-1.640;2023-08-06T18:36:00;0.50;;;0.50;;
76119;SDS011;64852;48.092;-1.640;2023-08-06T18:40:55;0.50;;;0.50;;
76119;SDS011;64852;48.092;-1.640;2023-08-06T18:43:22;0.50;;;0.50;;
76119;SDS011;64852;48.092;-1.640;2023-08-06T18:45:48;0.40;;;0.40;;
76119;SDS011;64852;48.092;-1.640;2023-08-06T18:48:13;0.80;;;0.80;;
76119;SDS011;64852;48.092;-1.640;2023-08-06T18:50:39;0.57;;;0.57;;
76119;SDS011;64852;48.092;-1.640;2023-08-06T18:53:05;0.40;;;0.40;;
76119;SDS011;64852;48.092;-1.640;2023-08-06T18:55:30;0.60;;;0.60;;
76119;SDS011;64852;48.092;-1.640;2023-08-06T18:57:57;0.38;;;0.38;;
76119;SDS011;64852;48.092;-1.640;2023-08-06T19:00:23;0.60;;;0.60;;
76119;SDS011;64852;48.092;-1.640;2023-08-06T19:02:49;1.33;;;1.05;;
76119;SDS011;64852;48.092;-1.640;2023-08-06T19:05:14;0.63;;;0.63;;
76119;SDS011;64852;48.092;-1.640;2023-08-06T19:07:40;0.70;;;0.70;;
76119;SDS011;64852;48.092;-1.640;2023-08-06T19:10:06;0.60;;;0.60;;
76119;SDS011;64852;48.092;-1.640;2023-08-06T19:12:31;1.27;;;0.80;;
76119;SDS011;64852;48.092;-1.640;2023-08-06T19:14:57;0.80;;;0.80;;
76119;SDS011;64852;48.092;-1.640;2023-08-06T19:17:23;0.60;;;0.60;;
76119;SDS011;64852;48.092;-1.640;2023-08-06T19:19:48;0.60;;;0.60;;
76119;SDS011;64852;48.092;-1.640;2023-08-06T19:22:14;0.60;;;0.60;;
76119;SDS011;64852;48.092;-1.640;2023-08-06T19:24:40;0.60;;;0.60;;
76119;SDS011;64852;48.092;-1.640;2023-08-06T19:27:05;0.60;;;0.60;;
76119;SDS011;64852;48.092;-1.640;2023-08-06T19:29:31;0.60;;;0.60;;
76119;SDS011;64852;48.092;-1.640;2023-08-06T19:31:57;0.73;;;0.73;;
76119;SDS011;64852;48.092;-1.640;2023-08-06T19:34:23;0.90;;;0.90;;
76119;SDS011;64852;48.092;-1.640;2023-08-06T19:36:49;0.70;;;0.70;;
76119;SDS011;64852;48.092;-1.640;2023-08-06T19:41:40;0.60;;;0.60;;
76119;SDS011;64852;48.092;-1.640;2023-08-06T19:44:07;0.80;;;0.80;;
76119;SDS011;64852;48.092;-1.640;2023-08-06T19:48:58;0.70;;;0.70;;
76119;SDS011;64852;48.092;-1.640;2023-08-06T19:51:23;2.20;;;1.27;;
76119;SDS011;64852;48.092;-1.640;2023-08-06T19:56:16;0.90;;;0.90;;
76119;SDS011;64852;48.092;-1.640;2023-08-06T19:58:41;0.77;;;0.67;;
76119;SDS011;64852;48.092;-1.640;2023-08-06T20:01:07;1.10;;;1.00;;
76119;SDS011;64852;48.092;-1.640;2023-08-06T20:03:34;2.08;;;1.38;;
76119;SDS011;64852;48.092;-1.640;2023-08-06T20:06:01;0.60;;;0.60;;
76119;SDS011;64852;48.092;-1.640;2023-08-06T20:08:27;0.60;;;0.60;;
76119;SDS011;64852;48.092;-1.640;2023-08-06T20:10:53;1.00;;;0.90;;
76119;SDS011;64852;48.092;-1.640;2023-08-06T20:13:22;0.60;;;0.60;;
76119;SDS011;64852;48.092;-1.640;2023-08-06T20:15:48;0.50;;;0.50;;
76119;SDS011;64852;48.092;-1.640;2023-08-06T20:18:14;0.73;;;0.73;;
76119;SDS011;64852;48.092;-1.640;2023-08-06T20:20:40;1.67;;;1.58;;
76119;SDS011;64852;48.092;-1.640;2023-08-06T20:23:06;0.60;;;0.60;;
76119;SDS011;64852;48.092;-1.640;2023-08-06T20:25:32;0.80;;;0.80;;
76119;SDS011;64852;48.092;-1.640;2023-08-06T20:27:58;1.10;;;1.08;;
76119;SDS011;64852;48.092;-1.640;2023-08-06T20:30:24;0.93;;;0.93;;
76119;SDS011;64852;48.092;-1.640;2023-08-06T20:32:50;0.60;;;0.60;;
76119;SDS011;64852;48.092;-1.640;2023-08-06T20:35:15;2.30;;;1.13;;
76119;SDS011;64852;48.092;-1.640;2023-08-06T20:37:41;0.90;;;0.90;;
76119;SDS011;64852;48.092;-1.640;2023-08-06T20:40:08;0.80;;;0.80;;
76119;SDS011;64852;48.092;-1.640;2023-08-06T20:42:34;0.70;;;0.70;;
76119;SDS011;64852;48.092;-1.640;2023-08-06T20:44:59;0.80;;;0.80;;
76119;SDS011;64852;48.092;-1.640;2023-08-06T20:47:25;1.00;;;0.97;;
76119;SDS011;64852;48.092;-1.640;2023-08-06T20:49:51;0.53;;;0.53;;
76119;SDS011;64852;48.092;-1.640;2023-08-06T20:52:16;0.60;;;0.60;;
76119;SDS011;64852;48.092;-1.640;2023-08-06T20:54:42;0.60;;;0.60;;
76119;SDS011;64852;48.092;-1.640;2023-08-06T20:57:08;0.60;;;0.60;;
76119;SDS011;64852;48.092;-1.640;2023-08-06T20:59:33;0.80;;;0.80;;
76119;SDS011;64852;48.092;-1.640;2023-08-06T21:01:59;0.70;;;0.70;;
76119;SDS011;64852;48.092;-1.640;2023-08-06T21:04:25;0.60;;;0.60;;
76119;SDS011;64852;48.092;-1.640;2023-08-06T21:06:50;0.80;;;0.80;;
76119;SDS011;64852;48.092;-1.640;2023-08-06T21:09:16;0.57;;;0.57;;
76119;SDS011;64852;48.092;-1.640;2023-08-06T21:11:42;0.53;;;0.53;;
76119;SDS011;64852;48.092;-1.640;2023-08-06T21:14:07;0.73;;;0.53;;
76119;SDS011;64852;48.092;-1.640;2023-08-06T21:16:33;0.90;;;0.90;;
76119;SDS011;64852;48.092;-1.640;2023-08-06T21:18:59;0.57;;;0.57;;
76119;SDS011;64852;48.092;-1.640;2023-08-06T21:21:24;0.70;;;0.70;;
76119;SDS011;64852;48.092;-1.640;2023-08-06T21:23:50;0.60;;;0.60;;
76119;SDS011;64852;48.092;-1.640;2023-08-06T21:26:16;0.57;;;0.57;;
76119;SDS011;64852;48.092;-1.640;2023-08-06T21:28:42;0.60;;;0.60;;
76119;SDS011;64852;48.092;-1.640;2023-08-06T21:31:09;0.85;;;0.85;;
76119;SDS011;64852;48.092;-1.640;2023-08-06T21:33:35;4.00;;;0.70;;
76119;SDS011;64852;48.092;-1.640;2023-08-06T21:36:02;0.65;;;0.60;;
76119;SDS011;64852;48.092;-1.640;2023-08-06T21:38:38;0.60;;;0.60;;
76119;SDS011;64852;48.092;-1.640;2023-08-06T21:41:05;0.50;;;0.50;;
76119;SDS011;64852;48.092;-1.640;2023-08-06T21:43:39;5.57;;;0.90;;
76119;SDS011;64852;48.092;-1.640;2023-08-06T21:46:08;0.60;;;0.60;;
76119;SDS011;64852;48.092;-1.640;2023-08-06T21:48:35;0.90;;;0.90;;
76119;SDS011;64852;48.092;-1.640;2023-08-06T21:51:05;0.60;;;0.60;;
76119;SDS011;64852;48.092;-1.640;2023-08-06T21:53:32;0.50;;;0.50;;
76119;SDS011;64852;48.092;-1.640;2023-08-06T21:55:59;0.70;;;0.70;;
76119;SDS011;64852;48.092;-1.640;2023-08-06T21:58:34;2.17;;;1.13;;
76119;SDS011;64852;48.092;-1.640;2023-08-06T22:01:05;0.55;;;0.55;;
76119;SDS011;64852;48.092;-1.640;2023-08-06T22:03:32;1.67;;;1.30;;
76119;SDS011;64852;48.092;-1.640;2023-08-06T22:08:24;0.60;;;0.60;;
76119;SDS011;64852;48.092;-1.640;2023-08-06T22:10:50;1.10;;;0.70;;
76119;SDS011;64852;48.092;-1.640;2023-08-06T22:13:16;0.75;;;0.75;;
76119;SDS011;64852;48.092;-1.640;2023-08-06T22:15:42;0.60;;;0.60;;
76119;SDS011;64852;48.092;-1.640;2023-08-06T22:18:08;0.70;;;0.70;;
76119;SDS011;64852;48.092;-1.640;2023-08-06T22:20:34;1.03;;;1.03;;
76119;SDS011;64852;48.092;-1.640;2023-08-06T22:23:00;0.70;;;0.70;;
76119;SDS011;64852;48.092;-1.640;2023-08-06T22:25:25;0.80;;;0.80;;
76119;SDS011;64852;48.092;-1.640;2023-08-06T22:27:53;1.02;;;1.02;;
76119;SDS011;64852;48.092;-1.640;2023-08-06T22:30:18;0.60;;;0.60;;
76119;SDS011;64852;48.092;-1.640;2023-08-06T22:32:45;0.60;;;0.60;;
76119;SDS011;64852;48.092;-1.640;2023-08-06T22:35:11;0.60;;;0.60;;
76119;SDS011;64852;48.092;-1.640;2023-08-06T22:37:39;1.27;;;1.13;;
76119;SDS011;64852;48.092;-1.640;2023-08-06T22:40:09;0.70;;;0.70;;
76119;SDS011;64852;48.092;-1.640;2023-08-06T22:42:35;0.63;;;0.63;;
76119;SDS011;64852;48.092;-1.640;2023-08-06T22:45:03;0.68;;;0.68;;
76119;SDS011;64852;48.092;-1.640;2023-08-06T22:49:55;0.60;;;0.60;;
76119;SDS011;64852;48.092;-1.640;2023-08-06T22:52:20;0.60;;;0.60;;
76119;SDS011;64852;48.092;-1.640;2023-08-06T22:54:46;1.87;;;1.70;;